sensor_id;sensor_type;location;lat;lon;timestamp;pressure;altitude;pressure_sealevel;temperature;humidity
17072;BME280;7731;50.720;6.912;2023-01-28T00:02:07;101122.19;;;3.36;100.00
17072;BME280;7731;50.720;6.912;2023-01-28T00:04:39;101123.09;;;3.20;100.00
17072;BME280;7731;50.720;6.912;2023-01-28T00:07:12;101128.97;;;3.31;100.00
17072;BME280;7731;50.720;6.912;2023-01-28T00:09:46;101122.22;;;3.27;100.00
17072;BME280;7731;50.720;6.912;2023-01-28T00:12:16;101118.91;;;3.00;100.00
17072;BME280;7731;50.720;6.912;2023-01-28T00:14:49;101125.69;;;2.98;100.00
17072;BME280;7731;50.720;6.912;2023-01-28T00:17:21;101114.63;;;3.09;100.00
17072;BME280;7731;50.720;6.912;2023-01-28T00:19:51;101110.34;;;3.35;100.00
17072;BME280;7731;50.720;6.912;2023-01-28T00:22:22;101122.22;;;3.30;100.00
17072;BME280;7731;50.720;6.912;2023-01-28T00:24:52;101119.72;;;3.18;100.00
17072;BME280;7731;50.720;6.912;2023-01-28T00:27:22;101118.06;;;3.03;100.00
17072;BME280;7731;50.720;6.912;2023-01-28T00:29:55;101122.25;;;3.16;100.00
17072;BME280;7731;50.720;6.912;2023-01-28T00:32:25;101118.06;;;2.97;100.00
17072;BME280;7731;50.720;6.912;2023-01-28T00:34:55;101119.72;;;3.06;100.00
17072;BME280;7731;50.720;6.912;2023-01-28T00:37:25;101114.63;;;3.19;100.00
17072;BME280;7731;50.720;6.912;2023-01-28T00:39:55;101112.91;;;3.23;100.00
17072;BME280;7731;50.720;6.912;2023-01-28T00:42:25;101114.63;;;3.24;100.00
17072;BME280;7731;50.720;6.912;2023-01-28T00:44:59;101123.13;;;3.04;100.00
17072;BME280;7731;50.720;6.912;2023-01-28T00:47:30;101118.84;;;3.22;100.00
17072;BME280;7731;50.720;6.912;2023-01-28T00:50:02;101112.13;;;2.96;100.00
17072;BME280;7731;50.720;6.912;2023-01-28T00:52:33;101117.19;;;2.99;100.00
17072;BME280;7731;50.720;6.912;2023-01-28T00:55:07;101124.84;;;2.81;100.00
17072;BME280;7731;50.720;6.912;2023-01-28T00:57:37;101127.38;;;2.81;100.00
17072;BME280;7731;50.720;6.912;2023-01-28T01:00:15;101123.16;;;2.98;100.00
17072;BME280;7731;50.720;6.912;2023-01-28T01:02:46;101119.78;;;2.75;100.00
17072;BME280;7731;50.720;6.912;2023-01-28T01:05:17;101130.81;;;2.64;100.00
17072;BME280;7731;50.720;6.912;2023-01-28T01:07:47;101126.56;;;2.23;100.00
17072;BME280;7731;50.720;6.912;2023-01-28T01:10:18;101134.13;;;1.89;100.00
17072;BME280;7731;50.720;6.912;2023-01-28T01:12:51;101132.44;;;1.98;100.00
17072;BME280;7731;50.720;6.912;2023-01-28T01:15:25;101125.59;;;1.69;100.00
17072;BME280;7731;50.720;6.912;2023-01-28T01:17:55;101123.97;;;1.80;100.00
17072;BME280;7731;50.720;6.912;2023-01-28T01:20:27;101124.88;;;2.27;100.00
17072;BME280;7731;50.720;6.912;2023-01-28T01:22:59;101124.88;;;2.56;100.00
17072;BME280;7731;50.720;6.912;2023-01-28T01:25:29;101117.22;;;2.90;100.00
17072;BME280;7731;50.720;6.912;2023-01-28T01:27:59;101126.56;;;2.48;100.00
17072;BME280;7731;50.720;6.912;2023-01-28T01:30:32;101121.47;;;2.85;100.00
17072;BME280;7731;50.720;6.912;2023-01-28T01:33:05;101130.81;;;2.67;100.00
17072;BME280;7731;50.720;6.912;2023-01-28T01:35:36;101129.94;;;2.52;100.00
17072;BME280;7731;50.720;6.912;2023-01-28T01:38:06;101122.34;;;2.31;100.00
17072;BME280;7731;50.720;6.912;2023-01-28T01:40:39;101125.72;;;2.67;100.00
17072;BME280;7731;50.720;6.912;2023-01-28T01:43:15;101127.41;;;2.75;100.00
17072;BME280;7731;50.720;6.912;2023-01-28T01:45:52;101130.81;;;2.40;100.00
17072;BME280;7731;50.720;6.912;2023-01-28T01:48:31;101134.19;;;2.32;100.00
17072;BME280;7731;50.720;6.912;2023-01-28T01:51:09;101129.13;;;2.54;100.00
17072;BME280;7731;50.720;6.912;2023-01-28T01:53:50;101123.22;;;2.30;100.00
17072;BME280;7731;50.720;6.912;2023-01-28T01:56:29;101123.13;;;2.01;100.00
17072;BME280;7731;50.720;6.912;2023-01-28T01:59:09;101129.03;;;1.82;100.00
17072;BME280;7731;50.720;6.912;2023-01-28T02:01:45;101128.22;;;2.03;100.00
17072;BME280;7731;50.720;6.912;2023-01-28T02:04:19;101129.09;;;2.70;100.00
17072;BME280;7731;50.720;6.912;2023-01-28T02:06:51;101131.59;;;2.93;100.00
17072;BME280;7731;50.720;6.912;2023-01-28T02:09:24;101137.53;;;2.79;100.00
17072;BME280;7731;50.720;6.912;2023-01-28T02:12:02;101147.69;;;2.56;100.00
17072;BME280;7731;50.720;6.912;2023-01-28T02:14:43;101146.88;;;2.63;100.00
17072;BME280;7731;50.720;6.912;2023-01-28T02:17:16;101147.69;;;2.25;100.00
17072;BME280;7731;50.720;6.912;2023-01-28T02:19:52;101147.69;;;2.31;100.00
17072;BME280;7731;50.720;6.912;2023-01-28T02:29:08;101151.09;;;2.52;100.00
17072;BME280;7731;50.720;6.912;2023-01-28T02:31:50;101146.88;;;2.53;100.00
17072;BME280;7731;50.720;6.912;2023-01-28T02:34:37;101146.88;;;2.65;100.00
17072;BME280;7731;50.720;6.912;2023-01-28T02:37:16;101142.63;;;2.75;100.00
17072;BME280;7731;50.720;6.912;2023-01-28T02:39:56;101147.69;;;2.84;100.00
17072;BME280;7731;50.720;6.912;2023-01-28T02:42:30;101145.16;;;2.41;100.00
17072;BME280;7731;50.720;6.912;2023-01-28T02:45:15;101143.47;;;2.20;100.00
17072;BME280;7731;50.720;6.912;2023-01-28T02:47:47;101149.41;;;2.59;100.00
17072;BME280;7731;50.720;6.912;2023-01-28T02:50:32;101145.16;;;2.85;100.00
17072;BME280;7731;50.720;6.912;2023-01-28T02:53:19;101151.91;;;2.88;100.00
17072;BME280;7731;50.720;6.912;2023-01-28T02:56:18;101149.38;;;2.82;100.00
17072;BME280;7731;50.720;6.912;2023-01-28T02:59:02;101151.09;;;2.74;100.00
17072;BME280;7731;50.720;6.912;2023-01-28T03:01:57;101151.91;;;2.88;100.00
17072;BME280;7731;50.720;6.912;2023-01-28T03:04:33;101166.31;;;2.83;100.00
17072;BME280;7731;50.720;6.912;2023-01-28T03:07:09;101162.91;;;2.68;100.00
17072;BME280;7731;50.720;6.912;2023-01-28T03:09:44;101168.00;;;2.84;100.00
17072;BME280;7731;50.720;6.912;2023-01-28T03:12:20;101168.88;;;2.61;100.00
17072;BME280;7731;50.720;6.912;2023-01-28T03:15:09;101172.22;;;2.32;100.00
17072;BME280;7731;50.720;6.912;2023-01-28T03:18:03;101184.91;;;2.36;100.00
17072;BME280;7731;50.720;6.912;2023-01-28T03:20:54;101182.38;;;2.53;100.00
17072;BME280;7731;50.720;6.912;2023-01-28T03:23:47;101183.19;;;2.30;100.00
17072;BME280;7731;50.720;6.912;2023-01-28T03:26:36;101184.91;;;2.36;100.00
17072;BME280;7731;50.720;6.912;2023-01-28T03:29:21;101187.41;;;2.20;100.00
17072;BME280;7731;50.720;6.912;2023-01-28T03:32:09;101179.00;;;2.41;100.00
17072;BME280;7731;50.720;6.912;2023-01-28T03:34:56;101190.81;;;2.47;100.00
17072;BME280;7731;50.720;6.912;2023-01-28T03:37:40;101189.16;;;2.97;100.00
17072;BME280;7731;50.720;6.912;2023-01-28T03:40:12;101194.25;;;2.63;100.00
17072;BME280;7731;50.720;6.912;2023-01-28T03:42:45;101200.06;;;2.11;100.00
17072;BME280;7731;50.720;6.912;2023-01-28T03:45:15;101195.84;;;2.21;100.00
17072;BME280;7731;50.720;6.912;2023-01-28T03:47:47;101195.06;;;2.66;100.00
17072;BME280;7731;50.720;6.912;2023-01-28T03:50:23;101206.91;;;2.67;100.00
17072;BME280;7731;50.720;6.912;2023-01-28T03:52:54;101202.66;;;2.46;100.00
17072;BME280;7731;50.720;6.912;2023-01-28T03:55:41;101200.94;;;2.25;100.00
17072;BME280;7731;50.720;6.912;2023-01-28T03:58:13;101195.06;;;2.65;100.00
17072;BME280;7731;50.720;6.912;2023-01-28T04:00:43;101200.97;;;2.72;100.00
17072;BME280;7731;50.720;6.912;2023-01-28T04:03:16;101199.31;;;2.58;100.00
17072;BME280;7731;50.720;6.912;2023-01-28T04:06:00;101207.75;;;2.59;100.00
17072;BME280;7731;50.720;6.912;2023-01-28T04:08:32;101208.50;;;2.13;100.00
17072;BME280;7731;50.720;6.912;2023-01-28T04:11:03;101212.75;;;2.12;100.00
17072;BME280;7731;50.720;6.912;2023-01-28T04:13:47;101210.25;;;2.36;100.00
17072;BME280;7731;50.720;6.912;2023-01-28T04:16:19;101203.50;;;2.44;100.00
17072;BME280;7731;50.720;6.912;2023-01-28T04:18:49;101218.63;;;2.08;100.00
17072;BME280;7731;50.720;6.912;2023-01-28T04:21:22;101212.75;;;2.19;100.00
17072;BME280;7731;50.720;6.912;2023-01-28T04:23:52;101207.69;;;2.17;100.00
17072;BME280;7731;50.720;6.912;2023-01-28T04:26:22;101205.16;;;2.14;100.00
17072;BME280;7731;50.720;6.912;2023-01-28T04:28:53;101207.72;;;2.28;100.00
17072;BME280;7731;50.720;6.912;2023-01-28T04:31:23;101210.94;;;1.77;100.00
17072;BME280;7731;50.720;6.912;2023-01-28T04:33:54;101216.75;;;1.63;100.00
17072;BME280;7731;50.720;6.912;2023-01-28T04:36:30;101217.75;;;1.94;100.00
17072;BME280;7731;50.720;6.912;2023-01-28T04:39:02;101210.16;;;1.99;100.00
17072;BME280;7731;50.720;6.912;2023-01-28T04:41:33;101216.16;;;2.24;100.00
17072;BME280;7731;50.720;6.912;2023-01-28T04:44:03;101220.22;;;1.78;100.00
17072;BME280;7731;50.720;6.912;2023-01-28T04:46:33;101217.63;;;1.65;100.00
17072;BME280;7731;50.720;6.912;2023-01-28T04:49:03;101218.53;;;1.76;100.00
17072;BME280;7731;50.720;6.912;2023-01-28T04:51:36;101225.38;;;1.99;100.00
17072;BME280;7731;50.720;6.912;2023-01-28T04:54:08;101222.00;;;2.07;100.00
17072;BME280;7731;50.720;6.912;2023-01-28T04:56:38;101228.72;;;1.94;100.00
17072;BME280;7731;50.720;6.912;2023-01-28T04:59:08;101235.50;;;1.99;100.00
17072;BME280;7731;50.720;6.912;2023-01-28T05:01:38;101234.66;;;2.04;100.00
17072;BME280;7731;50.720;6.912;2023-01-28T05:04:10;101240.56;;;1.95;100.00
17072;BME280;7731;50.720;6.912;2023-01-28T05:06:43;101236.38;;;2.07;100.00
17072;BME280;7731;50.720;6.912;2023-01-28T05:09:13;101228.69;;;1.85;100.00
17072;BME280;7731;50.720;6.912;2023-01-28T05:11:43;101228.75;;;2.01;100.00
17072;BME280;7731;50.720;6.912;2023-01-28T05:14:14;101230.50;;;2.11;100.00
17072;BME280;7731;50.720;6.912;2023-01-28T05:16:44;101230.38;;;1.80;100.00
17072;BME280;7731;50.720;6.912;2023-01-28T05:19:14;101231.25;;;1.91;100.00
17072;BME280;7731;50.720;6.912;2023-01-28T05:21:47;101233.88;;;2.13;100.00
17072;BME280;7731;50.720;6.912;2023-01-28T05:24:17;101228.69;;;1.84;100.00
17072;BME280;7731;50.720;6.912;2023-01-28T05:26:47;101237.28;;;2.23;100.00
17072;BME280;7731;50.720;6.912;2023-01-28T05:29:17;101245.63;;;1.95;100.00
17072;BME280;7731;50.720;6.912;2023-01-28T05:31:48;101235.38;;;1.68;100.00
17072;BME280;7731;50.720;6.912;2023-01-28T05:34:18;101232.88;;;1.74;100.00
17072;BME280;7731;50.720;6.912;2023-01-28T05:36:50;101236.28;;;1.85;100.00
17072;BME280;7731;50.720;6.912;2023-01-28T05:39:20;101238.06;;;2.02;100.00
17072;BME280;7731;50.720;6.912;2023-01-28T05:41:51;101240.50;;;1.80;100.00
17072;BME280;7731;50.720;6.912;2023-01-28T05:44:21;101238.84;;;1.91;100.00
17072;BME280;7731;50.720;6.912;2023-01-28T05:46:52;101238.88;;;1.94;100.00
17072;BME280;7731;50.720;6.912;2023-01-28T05:49:22;101237.16;;;1.89;100.00
17072;BME280;7731;50.720;6.912;2023-01-28T05:51:55;101243.91;;;1.85;100.00
17072;BME280;7731;50.720;6.912;2023-01-28T05:54:25;101243.13;;;2.05;100.00
17072;BME280;7731;50.720;6.912;2023-01-28T05:56:55;101251.44;;;1.71;100.00
17072;BME280;7731;50.720;6.912;2023-01-28T05:59:26;101253.22;;;1.88;100.00
17072;BME280;7731;50.720;6.912;2023-01-28T06:01:56;101255.75;;;1.89;100.00
17072;BME280;7731;50.720;6.912;2023-01-28T06:04:26;101260.16;;;2.41;100.00
17072;BME280;7731;50.720;6.912;2023-01-28T06:06:59;101259.25;;;2.28;100.00
17072;BME280;7731;50.720;6.912;2023-01-28T06:09:29;101263.38;;;1.94;100.00
17072;BME280;7731;50.720;6.912;2023-01-28T06:11:59;101266.81;;;2.14;100.00
17072;BME280;7731;50.720;6.912;2023-01-28T06:14:29;101265.16;;;2.15;100.00
17072;BME280;7731;50.720;6.912;2023-01-28T06:16:59;101271.09;;;2.26;100.00
17072;BME280;7731;50.720;6.912;2023-01-28T06:19:29;101272.66;;;2.00;100.00
17072;BME280;7731;50.720;6.912;2023-01-28T06:22:04;101274.50;;;2.38;100.00
17072;BME280;7731;50.720;6.912;2023-01-28T06:24:35;101280.41;;;2.30;100.00
17072;BME280;7731;50.720;6.912;2023-01-28T06:27:07;101279.22;;;1.57;100.00
17072;BME280;7731;50.720;6.912;2023-01-28T06:29:37;101278.59;;;1.97;100.00
17072;BME280;7731;50.720;6.912;2023-01-28T06:32:07;101284.41;;;1.76;100.00
17072;BME280;7731;50.720;6.912;2023-01-28T06:34:37;101289.63;;;2.10;99.23
17072;BME280;7731;50.720;6.912;2023-01-28T06:37:12;101281.16;;;2.03;99.35
17072;BME280;7731;50.720;6.912;2023-01-28T06:39:45;101283.69;;;2.03;99.70
17072;BME280;7731;50.720;6.912;2023-01-28T06:42:15;101281.22;;;2.23;99.60
17072;BME280;7731;50.720;6.912;2023-01-28T06:44:45;101285.44;;;2.17;100.00
17072;BME280;7731;50.720;6.912;2023-01-28T06:47:15;101292.13;;;2.04;99.66
17072;BME280;7731;50.720;6.912;2023-01-28T06:49:45;101287.06;;;2.07;100.00
17072;BME280;7731;50.720;6.912;2023-01-28T06:52:18;101271.84;;;2.01;100.00
17072;BME280;7731;50.720;6.912;2023-01-28T06:54:48;101282.78;;;1.93;99.94
17072;BME280;7731;50.720;6.912;2023-01-28T06:57:18;101279.53;;;2.22;99.08
17072;BME280;7731;50.720;6.912;2023-01-28T06:59:48;101282.91;;;2.15;98.41
17072;BME280;7731;50.720;6.912;2023-01-28T07:02:18;101286.28;;;2.14;98.04
17072;BME280;7731;50.720;6.912;2023-01-28T07:04:49;101273.56;;;2.03;99.24
17072;BME280;7731;50.720;6.912;2023-01-28T07:07:21;101281.00;;;1.74;100.00
17072;BME280;7731;50.720;6.912;2023-01-28T07:09:51;101284.47;;;1.91;100.00
17072;BME280;7731;50.720;6.912;2023-01-28T07:12:22;101282.78;;;1.93;100.00
17072;BME280;7731;50.720;6.912;2023-01-28T07:14:52;101283.56;;;1.75;100.00
17072;BME280;7731;50.720;6.912;2023-01-28T07:17:22;101282.84;;;2.09;98.78
17072;BME280;7731;50.720;6.912;2023-01-28T07:19:52;101282.56;;;1.53;99.45
17072;BME280;7731;50.720;6.912;2023-01-28T07:22:27;101284.34;;;1.70;100.00
17072;BME280;7731;50.720;6.912;2023-01-28T07:24:58;101284.34;;;1.67;100.00
17072;BME280;7731;50.720;6.912;2023-01-28T07:27:28;101292.88;;;1.87;100.00
17072;BME280;7731;50.720;6.912;2023-01-28T07:29:59;101295.59;;;2.18;100.00
17072;BME280;7731;50.720;6.912;2023-01-28T07:32:29;101298.94;;;2.14;100.00
17072;BME280;7731;50.720;6.912;2023-01-28T07:34:59;101289.69;;;2.31;100.00
17072;BME280;7731;50.720;6.912;2023-01-28T07:37:32;101287.66;;;1.56;100.00
17072;BME280;7731;50.720;6.912;2023-01-28T07:40:03;101295.19;;;1.46;100.00
17072;BME280;7731;50.720;6.912;2023-01-28T07:42:33;101293.06;;;2.24;100.00
17072;BME280;7731;50.720;6.912;2023-01-28T07:45:07;101304.06;;;2.25;100.00
17072;BME280;7731;50.720;6.912;2023-01-28T07:47:37;101299.81;;;2.28;100.00
17072;BME280;7731;50.720;6.912;2023-01-28T07:50:10;101313.97;;;1.75;99.34
17072;BME280;7731;50.720;6.912;2023-01-28T07:52:46;101316.66;;;2.05;100.00
17072;BME280;7731;50.720;6.912;2023-01-28T07:55:16;101321.88;;;2.48;100.00
17072;BME280;7731;50.720;6.912;2023-01-28T07:57:52;101318.09;;;1.63;100.00
17072;BME280;7731;50.720;6.912;2023-01-28T08:00:25;101311.56;;;1.99;100.00
17072;BME280;7731;50.720;6.912;2023-01-28T08:02:57;101309.78;;;1.85;100.00
17072;BME280;7731;50.720;6.912;2023-01-28T08:05:38;101312.25;;;1.74;100.00
17072;BME280;7731;50.720;6.912;2023-01-28T08:08:12;101318.44;;;2.27;100.00
17072;BME280;7731;50.720;6.912;2023-01-28T08:10:45;101304.81;;;2.07;100.00
17072;BME280;7731;50.720;6.912;2023-01-28T08:13:17;101303.25;;;2.38;100.00
17072;BME280;7731;50.720;6.912;2023-01-28T08:15:48;101309.88;;;2.04;98.31
17072;BME280;7731;50.720;6.912;2023-01-28T08:18:21;101312.38;;;1.98;98.39
17072;BME280;7731;50.720;6.912;2023-01-28T08:20:54;101306.31;;;1.68;100.00
17072;BME280;7731;50.720;6.912;2023-01-28T08:23:27;101316.44;;;1.68;100.00
17072;BME280;7731;50.720;6.912;2023-01-28T08:26:00;101316.56;;;1.89;100.00
17072;BME280;7731;50.720;6.912;2023-01-28T08:28:30;101323.09;;;1.56;100.00
17072;BME280;7731;50.720;6.912;2023-01-28T08:31:01;101318.13;;;1.72;100.00
17072;BME280;7731;50.720;6.912;2023-01-28T08:33:31;101328.97;;;1.48;100.00
17072;BME280;7731;50.720;6.912;2023-01-28T08:36:04;101329.81;;;1.50;100.00
17072;BME280;7731;50.720;6.912;2023-01-28T08:38:37;101332.91;;;1.13;100.00
17072;BME280;7731;50.720;6.912;2023-01-28T08:41:07;101328.94;;;1.41;100.00
17072;BME280;7731;50.720;6.912;2023-01-28T08:43:37;101334.00;;;1.43;100.00
17072;BME280;7731;50.720;6.912;2023-01-28T08:46:07;101331.81;;;1.94;100.00
17072;BME280;7731;50.720;6.912;2023-01-28T08:48:37;101340.88;;;1.63;100.00
17072;BME280;7731;50.720;6.912;2023-01-28T08:51:07;101335.25;;;2.13;100.00
17072;BME280;7731;50.720;6.912;2023-01-28T08:53:41;101338.69;;;2.18;100.00
17072;BME280;7731;50.720;6.912;2023-01-28T08:56:13;101342.16;;;2.45;96.99
17072;BME280;7731;50.720;6.912;2023-01-28T08:58:44;101331.25;;;2.74;95.72
17072;BME280;7731;50.720;6.912;2023-01-28T09:01:14;101332.06;;;2.63;93.23
17072;BME280;7731;50.720;6.912;2023-01-28T09:03:44;101340.09;;;1.70;97.71
17072;BME280;7731;50.720;6.912;2023-01-28T09:06:14;101348.31;;;1.41;99.00
17072;BME280;7731;50.720;6.912;2023-01-28T09:08:47;101348.47;;;1.63;99.62
17072;BME280;7731;50.720;6.912;2023-01-28T09:11:17;101340.44;;;2.39;92.86
17072;BME280;7731;50.720;6.912;2023-01-28T09:13:47;101354.72;;;2.17;90.07
17072;BME280;7731;50.720;6.912;2023-01-28T09:16:17;101356.97;;;1.65;91.76
17072;BME280;7731;50.720;6.912;2023-01-28T09:18:48;101360.41;;;1.76;95.09
17072;BME280;7731;50.720;6.912;2023-01-28T09:21:18;101359.09;;;2.52;92.13
17072;BME280;7731;50.720;6.912;2023-01-28T09:23:51;101354.84;;;2.45;89.07
17072;BME280;7731;50.720;6.912;2023-01-28T09:26:22;101358.94;;;2.12;89.76
17072;BME280;7731;50.720;6.912;2023-01-28T09:28:52;101373.31;;;2.18;91.38
17072;BME280;7731;50.720;6.912;2023-01-28T09:31:22;101371.81;;;2.61;94.89
17072;BME280;7731;50.720;6.912;2023-01-28T09:33:55;101370.97;;;2.62;93.01
17072;BME280;7731;50.720;6.912;2023-01-28T09:36:25;101381.75;;;2.13;96.14
17072;BME280;7731;50.720;6.912;2023-01-28T09:38:58;101387.03;;;2.55;94.55
17072;BME280;7731;50.720;6.912;2023-01-28T09:41:45;101389.66;;;2.80;95.09
17072;BME280;7731;50.720;6.912;2023-01-28T09:44:39;101396.16;;;2.24;94.37
17072;BME280;7731;50.720;6.912;2023-01-28T09:47:21;101397.06;;;2.27;97.16
17072;BME280;7731;50.720;6.912;2023-01-28T09:49:56;101402.16;;;2.37;94.40
17072;BME280;7731;50.720;6.912;2023-01-28T09:52:33;101403.13;;;2.71;90.17
17072;BME280;7731;50.720;6.912;2023-01-28T09:55:19;101398.91;;;2.73;92.94
17072;BME280;7731;50.720;6.912;2023-01-28T09:57:53;101416.28;;;1.94;93.72
17072;BME280;7731;50.720;6.912;2023-01-28T10:00:40;101408.88;;;2.33;92.93
17072;BME280;7731;50.720;6.912;2023-01-28T10:03:31;101415.03;;;2.86;95.23
17072;BME280;7731;50.720;6.912;2023-01-28T10:06:19;101412.53;;;2.94;91.21
17072;BME280;7731;50.720;6.912;2023-01-28T10:09:26;101420.03;;;2.61;94.72
17072;BME280;7731;50.720;6.912;2023-01-28T10:12:38;101425.06;;;2.52;92.26
17072;BME280;7731;50.720;6.912;2023-01-28T10:15:37;101435.09;;;2.30;91.55
17072;BME280;7731;50.720;6.912;2023-01-28T10:18:11;101425.50;;;1.86;94.96
17072;BME280;7731;50.720;6.912;2023-01-28T10:20:48;101428.31;;;2.29;97.26
17072;BME280;7731;50.720;6.912;2023-01-28T10:23:24;101421.69;;;2.59;94.53
17072;BME280;7731;50.720;6.912;2023-01-28T10:26:00;101422.44;;;2.34;92.57
17072;BME280;7731;50.720;6.912;2023-01-28T10:28:36;101426.63;;;2.28;91.11
17072;BME280;7731;50.720;6.912;2023-01-28T10:31:11;101415.66;;;2.32;94.28
17072;BME280;7731;50.720;6.912;2023-01-28T10:33:42;101415.72;;;2.45;91.79
17072;BME280;7731;50.720;6.912;2023-01-28T10:36:15;101417.28;;;2.20;93.79
17072;BME280;7731;50.720;6.912;2023-01-28T10:38:46;101415.66;;;2.34;93.44
17072;BME280;7731;50.720;6.912;2023-01-28T10:41:21;101420.75;;;2.39;94.01
17072;BME280;7731;50.720;6.912;2023-01-28T10:43:56;101415.03;;;2.86;89.25
17072;BME280;7731;50.720;6.912;2023-01-28T10:46:31;101425.09;;;2.58;86.90
17072;BME280;7731;50.720;6.912;2023-01-28T10:49:12;101424.16;;;2.42;84.13
17072;BME280;7731;50.720;6.912;2023-01-28T10:51:44;101430.22;;;2.71;83.50
17072;BME280;7731;50.720;6.912;2023-01-28T10:54:22;101420.03;;;2.64;83.45
17072;BME280;7731;50.720;6.912;2023-01-28T10:56:57;101419.81;;;2.15;85.99
17072;BME280;7731;50.720;6.912;2023-01-28T10:59:33;101422.56;;;2.58;82.37
17072;BME280;7731;50.720;6.912;2023-01-28T11:02:28;101413.25;;;2.57;83.18
17072;BME280;7731;50.720;6.912;2023-01-28T11:05:13;101403.75;;;2.19;83.57
17072;BME280;7731;50.720;6.912;2023-01-28T11:07:44;101418.31;;;2.60;80.82
17072;BME280;7731;50.720;6.912;2023-01-28T11:10:28;101424.69;;;1.90;83.85
17072;BME280;7731;50.720;6.912;2023-01-28T11:13:00;101415.41;;;1.92;85.18
17072;BME280;7731;50.720;6.912;2023-01-28T11:15:34;101412.38;;;2.50;82.83
17072;BME280;7731;50.720;6.912;2023-01-28T11:18:16;101424.97;;;2.34;84.06
17072;BME280;7731;50.720;6.912;2023-01-28T11:20:53;101428.41;;;2.45;82.16
17072;BME280;7731;50.720;6.912;2023-01-28T11:23:28;101414.97;;;2.61;82.39
17072;BME280;7731;50.720;6.912;2023-01-28T11:26:05;101404.88;;;2.78;82.17
17072;BME280;7731;50.720;6.912;2023-01-28T11:28:40;101410.66;;;2.49;86.38
17072;BME280;7731;50.720;6.912;2023-01-28T11:31:17;101425.03;;;2.43;83.68
17072;BME280;7731;50.720;6.912;2023-01-28T11:33:52;101408.66;;;1.93;84.42
17072;BME280;7731;50.720;6.912;2023-01-28T11:36:26;101408.00;;;2.20;83.21
17072;BME280;7731;50.720;6.912;2023-01-28T11:39:01;101406.22;;;2.10;83.78
17072;BME280;7731;50.720;6.912;2023-01-28T11:41:33;101395.91;;;1.79;84.46
17072;BME280;7731;50.720;6.912;2023-01-28T11:44:15;101401.22;;;2.24;83.68
17072;BME280;7731;50.720;6.912;2023-01-28T11:47:04;101407.91;;;2.08;83.16
17072;BME280;7731;50.720;6.912;2023-01-28T11:49:56;101408.00;;;2.20;83.73
17072;BME280;7731;50.720;6.912;2023-01-28T11:52:46;101412.31;;;2.37;83.09
17072;BME280;7731;50.720;6.912;2023-01-28T11:55:47;101413.66;;;1.85;83.39
17072;BME280;7731;50.720;6.912;2023-01-28T11:58:25;101408.81;;;2.18;83.12
17072;BME280;7731;50.720;6.912;2023-01-28T12:01:05;101414.66;;;2.06;82.93
17072;BME280;7731;50.720;6.912;2023-01-28T12:03:57;101426.41;;;1.94;81.95
17072;BME280;7731;50.720;6.912;2023-01-28T12:06:55;101418.59;;;1.67;86.28
17072;BME280;7731;50.720;6.912;2023-01-28T12:09:41;101410.00;;;1.46;85.46
17072;BME280;7731;50.720;6.912;2023-01-28T12:12:38;101400.41;;;1.14;90.74
17072;BME280;7731;50.720;6.912;2023-01-28T12:16:02;101402.53;;;1.62;89.84
17072;BME280;7731;50.720;6.912;2023-01-28T12:19:17;101398.47;;;1.84;86.72
17072;BME280;7731;50.720;6.912;2023-01-28T12:22:17;101395.88;;;1.76;85.19
17072;BME280;7731;50.720;6.912;2023-01-28T12:25:16;101403.28;;;1.53;89.65
17072;BME280;7731;50.720;6.912;2023-01-28T12:28:07;101410.25;;;1.78;87.85
17072;BME280;7731;50.720;6.912;2023-01-28T12:31:05;101407.28;;;1.24;91.68
17072;BME280;7731;50.720;6.912;2023-01-28T12:34:15;101396.34;;;1.32;92.63
17072;BME280;7731;50.720;6.912;2023-01-28T12:36:59;101408.06;;;1.19;92.19
17072;BME280;7731;50.720;6.912;2023-01-28T12:39:51;101398.06;;;1.33;90.98
17072;BME280;7731;50.720;6.912;2023-01-28T12:42:42;101391.44;;;1.49;89.80
17072;BME280;7731;50.720;6.912;2023-01-28T12:45:19;101388.88;;;1.44;90.02
17072;BME280;7731;50.720;6.912;2023-01-28T12:47:57;101390.63;;;1.51;90.22
17072;BME280;7731;50.720;6.912;2023-01-28T12:50:40;101386.28;;;1.38;89.78
17072;BME280;7731;50.720;6.912;2023-01-28T12:53:24;101389.78;;;1.51;88.53
17072;BME280;7731;50.720;6.912;2023-01-28T12:56:04;101392.59;;;1.89;86.85
17072;BME280;7731;50.720;6.912;2023-01-28T12:58:45;101386.44;;;1.59;84.41
17072;BME280;7731;50.720;6.912;2023-01-28T13:01:24;101386.22;;;1.32;83.73
17072;BME280;7731;50.720;6.912;2023-01-28T13:04:05;101391.41;;;1.46;85.95
17072;BME280;7731;50.720;6.912;2023-01-28T13:06:45;101389.06;;;1.69;85.35
17072;BME280;7731;50.720;6.912;2023-01-28T13:09:19;101398.38;;;1.74;81.64
17072;BME280;7731;50.720;6.912;2023-01-28T13:11:55;101407.31;;;1.29;84.53
17072;BME280;7731;50.720;6.912;2023-01-28T13:14:31;101384.00;;;1.72;82.66
17072;BME280;7731;50.720;6.912;2023-01-28T13:17:26;101378.84;;;1.59;81.99
17072;BME280;7731;50.720;6.912;2023-01-28T13:20:14;101372.75;;;1.36;84.01
17072;BME280;7731;50.720;6.912;2023-01-28T13:22:47;101383.59;;;1.22;85.73
17072;BME280;7731;50.720;6.912;2023-01-28T13:25:23;101369.34;;;1.31;84.73
17072;BME280;7731;50.720;6.912;2023-01-28T13:28:00;101364.25;;;1.26;84.69
17072;BME280;7731;50.720;6.912;2023-01-28T13:30:33;101358.78;;;1.87;82.89
17072;BME280;7731;50.720;6.912;2023-01-28T13:33:24;101357.59;;;1.40;81.14
17072;BME280;7731;50.720;6.912;2023-01-28T13:35:57;101354.28;;;1.45;82.25
17072;BME280;7731;50.720;6.912;2023-01-28T13:38:34;101358.34;;;1.30;83.31
17072;BME280;7731;50.720;6.912;2023-01-28T13:41:05;101353.53;;;1.63;83.29
17072;BME280;7731;50.720;6.912;2023-01-28T13:43:39;101350.47;;;2.13;78.93
17072;BME280;7731;50.720;6.912;2023-01-28T13:46:14;101360.28;;;1.57;79.37
17072;BME280;7731;50.720;6.912;2023-01-28T13:48:58;101352.75;;;1.68;80.97
17072;BME280;7731;50.720;6.912;2023-01-28T13:51:33;101350.28;;;1.77;80.51
17072;BME280;7731;50.720;6.912;2023-01-28T13:54:15;101336.50;;;1.37;80.47
17072;BME280;7731;50.720;6.912;2023-01-28T13:57:11;101321.66;;;1.95;77.11
17072;BME280;7731;50.720;6.912;2023-01-28T14:00:00;101297.78;;;1.59;80.94